Time;durP1;ratioP1;P1;durP2;ratioP2;P2;SDS_P1;SDS_P2;PMS_P1;PMS_P2;Temp;Humidity;BMP_temperature;BMP_pressure;BME280_temperature;BME280_humidity;BME280_pressure;Samples;Min_cycle;Max_cycle;Signal;HPM_P1;HPM_P2
2022/01/16 00:04:43;;;;;;;43.42;22.60;;;;;;;;;;4879243;29;20072;-74
2022/01/16 00:07:09;;;;;;;40.40;20.13;;;;;;;;;;4879364;29;20057;-71
2022/01/16 00:09:35;;;;;;;41.85;20.95;;;;;;;;;;4879024;29;20049;-74
2022/01/16 00:12:04;;;;;;;38.30;20.02;;;;;;;;;;4878559;29;20346;-72
2022/01/16 00:14:31;;;;;;;39.00;19.25;;;;;;;;;;4879095;29;20118;-73
2022/01/16 00:16:58;;;;;;;42.00;21.95;;;;;;;;;;4878812;29;20055;-73
2022/01/16 00:19:24;;;;;;;40.00;20.75;;;;;;;;;;4880554;29;20045;-72
2022/01/16 00:21:50;;;;;;;40.70;20.63;;;;;;;;;;4880538;29;20495;-73
2022/01/16 00:24:16;;;;;;;43.17;21.48;;;;;;;;;;4882575;29;20469;-72
2022/01/16 00:26:42;;;;;;;42.13;20.98;;;;;;;;;;4866548;29;20127;-74
2022/01/16 00:29:09;;;;;;;46.20;21.83;;;;;;;;;;4883311;29;20071;-74
2022/01/16 00:31:37;;;;;;;44.80;22.80;;;;;;;;;;4881942;29;20135;-74
2022/01/16 00:34:03;;;;;;;45.08;22.13;;;;;;;;;;4881955;29;20060;-71
2022/01/16 00:36:30;;;;;;;47.22;22.42;;;;;;;;;;4881827;29;20384;-75
2022/01/16 00:38:57;;;;;;;49.25;23.77;;;;;;;;;;4866451;29;20121;-75
2022/01/16 00:41:23;;;;;;;46.83;22.42;;;;;;;;;;4882034;29;20449;-73
2022/01/16 00:43:50;;;;;;;47.67;23.08;;;;;;;;;;4882653;29;20053;-73
2022/01/16 00:46:17;;;;;;;50.88;23.48;;;;;;;;;;4882356;29;20080;-73
2022/01/16 00:48:43;;;;;;;47.13;22.67;;;;;;;;;;4882073;29;20049;-72
2022/01/16 00:51:09;;;;;;;55.38;23.70;;;;;;;;;;4882075;29;20052;-72
2022/01/16 00:53:36;;;;;;;59.58;24.70;;;;;;;;;;4882105;29;20049;-73
2022/01/16 00:56:02;;;;;;;59.65;24.98;;;;;;;;;;4881678;29;20404;-74
2022/01/16 00:58:28;;;;;;;57.60;25.58;;;;;;;;;;4881376;29;20057;-72
2022/01/16 01:00:54;;;;;;;61.60;27.83;;;;;;;;;;4882205;29;20053;-73
2022/01/16 01:03:20;;;;;;;56.13;25.70;;;;;;;;;;4880654;29;20080;-73
2022/01/16 01:05:46;;;;;;;64.18;27.17;;;;;;;;;;4882125;29;20464;-72
2022/01/16 01:08:13;;;;;;;54.58;24.30;;;;;;;;;;4881360;29;20381;-75
2022/01/16 01:10:41;;;;;;;60.58;26.67;;;;;;;;;;4882229;29;20045;-72
2022/01/16 01:13:21;;;;;;;58.05;25.42;;;;;;;;;;4881984;29;20346;-72
2022/01/16 01:15:50;;;;;;;64.03;28.08;;;;;;;;;;4881767;29;20132;-71
2022/01/16 01:18:22;;;;;;;64.50;27.45;;;;;;;;;;4881732;29;20132;-73
2022/01/16 01:20:50;;;;;;;74.50;29.13;;;;;;;;;;4881545;29;20048;-73
2022/01/16 01:23:17;;;;;;;70.25;29.00;;;;;;;;;;4881994;29;20063;-72
2022/01/16 01:25:43;;;;;;;69.97;28.13;;;;;;;;;;4882145;29;20131;-73
2022/01/16 01:28:09;;;;;;;66.35;28.52;;;;;;;;;;4881264;29;20056;-71
2022/01/16 01:30:37;;;;;;;82.45;32.28;;;;;;;;;;4881177;29;20445;-71
2022/01/16 01:33:03;;;;;;;72.78;28.25;;;;;;;;;;4881471;29;20109;-73
2022/01/16 01:35:36;;;;;;;76.90;30.17;;;;;;;;;;4881227;29;20057;-72
2022/01/16 01:38:03;;;;;;;67.63;29.35;;;;;;;;;;4882098;29;20135;-72
2022/01/16 01:40:29;;;;;;;63.97;28.75;;;;;;;;;;4881065;29;20045;-74
2022/01/16 01:51:11;;;;;;;71.43;29.02;;;;;;;;;;4878442;29;20049;-73
2022/01/16 01:53:37;;;;;;;77.53;30.40;;;;;;;;;;4880428;29;20068;-74
2022/01/16 01:56:04;;;;;;;79.80;29.65;;;;;;;;;;4880668;29;20048;-72
2022/01/16 01:58:31;;;;;;;75.10;30.75;;;;;;;;;;4880395;29;20465;-72
2022/01/16 02:00:57;;;;;;;82.72;31.15;;;;;;;;;;4881167;29;20053;-72
2022/01/16 02:03:31;;;;;;;81.65;30.15;;;;;;;;;;4880967;29;20384;-73
2022/01/16 02:05:57;;;;;;;66.40;27.95;;;;;;;;;;4880682;29;20408;-73
2022/01/16 02:08:24;;;;;;;88.28;33.05;;;;;;;;;;4880468;29;20064;-74
2022/01/16 02:10:50;;;;;;;83.88;32.70;;;;;;;;;;4880674;29;20423;-72
2022/01/16 02:13:30;;;;;;;80.25;29.85;;;;;;;;;;4880762;29;20068;-73
2022/01/16 02:34:38;;;;;;;83.25;31.80;;;;;;;;;;4879228;29;20065;-74
2022/01/16 02:37:08;;;;;;;86.88;32.53;;;;;;;;;;4880327;29;20092;-74
2022/01/16 02:39:36;;;;;;;99.07;35.28;;;;;;;;;;4880376;29;20061;-74
2022/01/16 02:42:02;;;;;;;93.53;33.17;;;;;;;;;;4879739;29;20397;-74
2022/01/16 02:44:34;;;;;;;91.72;34.65;;;;;;;;;;4879103;29;20083;-75
2022/01/16 02:47:01;;;;;;;100.40;35.33;;;;;;;;;;4889666;29;20158;-74
2022/01/16 02:49:28;;;;;;;82.18;30.50;;;;;;;;;;4881123;29;20061;-74
2022/01/16 02:51:59;;;;;;;107.35;36.35;;;;;;;;;;4879455;29;20414;-73
2022/01/16 02:54:27;;;;;;;101.47;35.35;;;;;;;;;;4880216;29;20438;-73
2022/01/16 02:56:53;;;;;;;101.50;36.05;;;;;;;;;;4878416;29;20057;-70
2022/01/16 02:59:20;;;;;;;102.07;35.28;;;;;;;;;;4879843;29;20049;-72
2022/01/16 03:01:46;;;;;;;104.22;34.75;;;;;;;;;;4880336;29;20053;-72
2022/01/16 03:04:12;;;;;;;105.88;35.05;;;;;;;;;;4880076;29;20052;-71
2022/01/16 03:06:38;;;;;;;111.95;36.08;;;;;;;;;;4880924;29;20057;-73
2022/01/16 03:09:07;;;;;;;115.13;37.78;;;;;;;;;;4879873;29;20354;-70
2022/01/16 03:11:39;;;;;;;109.10;34.10;;;;;;;;;;4879932;29;20269;-72
2022/01/16 03:14:08;;;;;;;119.60;35.95;;;;;;;;;;4879426;29;20049;-70
2022/01/16 03:16:35;;;;;;;110.10;37.63;;;;;;;;;;4880128;29;20063;-72
2022/01/16 03:21:54;;;;;;;126.60;38.00;;;;;;;;;;4878080;29;20056;-74
2022/01/16 03:24:21;;;;;;;109.18;36.55;;;;;;;;;;4880001;29;20437;-75
2022/01/16 03:26:47;;;;;;;140.43;37.55;;;;;;;;;;4879422;29;20056;-74
2022/01/16 03:29:13;;;;;;;136.23;39.83;;;;;;;;;;4880156;29;20053;-76
2022/01/16 03:31:39;;;;;;;118.82;38.00;;;;;;;;;;4894651;29;20135;-75
2022/01/16 03:34:05;;;;;;;161.15;44.97;;;;;;;;;;4897497;29;20063;-74
2022/01/16 03:36:31;;;;;;;146.13;41.88;;;;;;;;;;4878791;29;20048;-74
2022/01/16 03:38:57;;;;;;;110.93;38.20;;;;;;;;;;4878938;29;20044;-73
2022/01/16 03:41:27;;;;;;;121.40;40.03;;;;;;;;;;4879185;29;20076;-73
2022/01/16 03:43:54;;;;;;;152.48;42.33;;;;;;;;;;4879537;29;20067;-73
2022/01/16 03:46:20;;;;;;;143.00;41.25;;;;;;;;;;4878779;29;20497;-74
2022/01/16 03:48:46;;;;;;;133.25;40.92;;;;;;;;;;4879646;29;20145;-72
2022/01/16 03:51:12;;;;;;;116.30;37.22;;;;;;;;;;4863355;29;20052;-73
2022/01/16 03:53:38;;;;;;;138.20;40.00;;;;;;;;;;4878818;29;20068;-70
2022/01/16 03:56:04;;;;;;;129.15;41.30;;;;;;;;;;4881289;29;20049;-71
2022/01/16 03:58:31;;;;;;;152.40;43.03;;;;;;;;;;4883197;29;20057;-71
2022/01/16 04:00:57;;;;;;;148.23;40.85;;;;;;;;;;4883307;29;20057;-73
2022/01/16 04:03:23;;;;;;;149.02;43.20;;;;;;;;;;4882593;29;20068;-71
2022/01/16 04:05:49;;;;;;;138.43;40.58;;;;;;;;;;4882873;29;20061;-72
2022/01/16 04:08:15;;;;;;;151.00;42.42;;;;;;;;;;4882458;29;20358;-71
2022/01/16 04:10:41;;;;;;;135.35;41.17;;;;;;;;;;4883424;29;20144;-72
2022/01/16 04:13:08;;;;;;;127.25;39.78;;;;;;;;;;4882930;29;20136;-70
2022/01/16 04:15:34;;;;;;;123.13;40.17;;;;;;;;;;4882960;29;20057;-72
2022/01/16 04:18:01;;;;;;;146.75;41.38;;;;;;;;;;4882558;29;20049;-71
2022/01/16 04:20:27;;;;;;;126.93;39.05;;;;;;;;;;4882422;29;20045;-72
2022/01/16 04:22:54;;;;;;;128.82;40.38;;;;;;;;;;4881528;29;20124;-74
2022/01/16 04:25:20;;;;;;;132.73;42.45;;;;;;;;;;4882972;29;20116;-71
2022/01/16 04:27:46;;;;;;;109.82;38.55;;;;;;;;;;4883573;29;20045;-73
2022/01/16 04:30:12;;;;;;;121.90;38.63;;;;;;;;;;4882793;29;20053;-71
2022/01/16 04:32:38;;;;;;;118.55;40.22;;;;;;;;;;4882167;29;20116;-72
2022/01/16 04:35:05;;;;;;;123.60;39.58;;;;;;;;;;4863555;29;20050;-72
2022/01/16 04:37:31;;;;;;;114.78;37.63;;;;;;;;;;4863889;29;20510;-73
2022/01/16 04:40:01;;;;;;;123.47;40.58;;;;;;;;;;4863229;29;20049;-73
2022/01/16 04:45:12;;;;;;;118.15;39.78;;;;;;;;;;4846171;29;20110;-73
2022/01/16 04:47:39;;;;;;;123.22;42.10;;;;;;;;;;4845337;29;20050;-72
2022/01/16 04:50:06;;;;;;;118.72;41.33;;;;;;;;;;4846355;29;20049;-72
2022/01/16 04:52:32;;;;;;;120.82;39.85;;;;;;;;;;4862814;29;20468;-72
2022/01/16 04:54:58;;;;;;;120.68;41.70;;;;;;;;;;4863197;29;20124;-72
2022/01/16 04:57:24;;;;;;;105.95;37.47;;;;;;;;;;4864042;29;20041;-73
2022/01/16 04:59:50;;;;;;;102.03;36.42;;;;;;;;;;4863654;29;20049;-74
2022/01/16 05:02:17;;;;;;;113.95;40.38;;;;;;;;;;4862696;29;20114;-72
2022/01/16 05:04:43;;;;;;;108.10;39.85;;;;;;;;;;4863860;29;20060;-72
2022/01/16 05:07:09;;;;;;;110.40;39.05;;;;;;;;;;4862508;29;20057;-72
2022/01/16 05:09:35;;;;;;;111.50;39.40;;;;;;;;;;4863158;29;20049;-72
2022/01/16 05:12:07;;;;;;;118.68;41.85;;;;;;;;;;4847588;29;20065;-72
2022/01/16 05:17:18;;;;;;;131.77;43.25;;;;;;;;;;4863173;29;20049;-73
2022/01/16 05:19:44;;;;;;;121.05;41.15;;;;;;;;;;4863673;29;20058;-72
2022/01/16 05:22:10;;;;;;;117.38;41.08;;;;;;;;;;4861490;29;20381;-71
2022/01/16 05:24:36;;;;;;;116.15;40.08;;;;;;;;;;4863281;29;20519;-71
2022/01/16 05:27:05;;;;;;;113.40;41.78;;;;;;;;;;4851996;29;20120;-71
2022/01/16 05:29:31;;;;;;;115.07;42.35;;;;;;;;;;4871537;29;20129;-74
2022/01/16 05:31:57;;;;;;;113.72;41.13;;;;;;;;;;4879623;29;20393;-71
2022/01/16 05:34:25;;;;;;;115.35;41.25;;;;;;;;;;4882037;29;20133;-73
2022/01/16 05:36:52;;;;;;;114.93;40.72;;;;;;;;;;4881234;29;20477;-72
2022/01/16 05:39:19;;;;;;;114.13;42.53;;;;;;;;;;4880629;29;20137;-73
2022/01/16 05:41:45;;;;;;;114.47;41.58;;;;;;;;;;4880771;29;20060;-72
2022/01/16 05:44:11;;;;;;;102.78;40.95;;;;;;;;;;4881652;29;20056;-71
2022/01/16 05:46:37;;;;;;;122.25;42.88;;;;;;;;;;4865550;29;20048;-73
2022/01/16 05:49:03;;;;;;;124.10;43.53;;;;;;;;;;4881024;29;20108;-71
2022/01/16 05:51:29;;;;;;;123.30;42.95;;;;;;;;;;4879004;29;20044;-74
2022/01/16 05:53:56;;;;;;;116.10;42.67;;;;;;;;;;4880033;29;20378;-72
2022/01/16 05:56:23;;;;;;;109.38;42.72;;;;;;;;;;4880769;29;20393;-72
2022/01/16 05:58:49;;;;;;;117.05;44.58;;;;;;;;;;4881388;29;20049;-73
2022/01/16 06:01:15;;;;;;;113.32;41.72;;;;;;;;;;4880736;29;20385;-72
2022/01/16 06:03:41;;;;;;;107.97;43.35;;;;;;;;;;4880644;29;20049;-73
2022/01/16 06:06:08;;;;;;;105.47;41.92;;;;;;;;;;4880747;29;20052;-75
2022/01/16 06:08:36;;;;;;;113.40;43.15;;;;;;;;;;4880615;29;20055;-73
2022/01/16 06:11:02;;;;;;;100.13;39.78;;;;;;;;;;4880265;29;20057;-74
2022/01/16 06:13:28;;;;;;;93.63;39.28;;;;;;;;;;4880483;29;20096;-73
2022/01/16 06:15:54;;;;;;;107.78;41.10;;;;;;;;;;4880078;29;20060;-73
2022/01/16 06:18:20;;;;;;;97.55;39.75;;;;;;;;;;4880627;29;20053;-72
2022/01/16 06:20:47;;;;;;;97.13;39.47;;;;;;;;;;4880764;29;20120;-72
2022/01/16 06:23:14;;;;;;;94.97;40.75;;;;;;;;;;4868134;29;20097;-74
2022/01/16 06:25:40;;;;;;;100.88;40.35;;;;;;;;;;4880746;29;20104;-74
2022/01/16 06:28:06;;;;;;;93.88;40.03;;;;;;;;;;4880587;29;20053;-73
2022/01/16 06:30:33;;;;;;;94.90;40.03;;;;;;;;;;4880869;29;20057;-71
2022/01/16 06:33:00;;;;;;;84.88;37.75;;;;;;;;;;4880161;29;20053;-76
2022/01/16 06:35:26;;;;;;;86.72;38.60;;;;;;;;;;4879852;29;20327;-74
2022/01/16 06:37:52;;;;;;;86.85;39.75;;;;;;;;;;4879905;29;20056;-74
2022/01/16 06:40:18;;;;;;;89.88;38.58;;;;;;;;;;4880310;29;20060;-73
2022/01/16 06:42:44;;;;;;;81.65;35.88;;;;;;;;;;4880158;29;20049;-74
2022/01/16 06:45:11;;;;;;;81.72;36.63;;;;;;;;;;4879774;29;20136;-73
2022/01/16 06:47:37;;;;;;;87.13;37.53;;;;;;;;;;4880096;29;20226;-74
2022/01/16 06:50:05;;;;;;;78.88;37.13;;;;;;;;;;4880415;29;20419;-72
2022/01/16 06:52:31;;;;;;;72.75;35.70;;;;;;;;;;4878606;29;20053;-73
2022/01/16 06:54:57;;;;;;;67.38;34.20;;;;;;;;;;4880488;29;20053;-73
2022/01/16 06:57:23;;;;;;;69.75;34.47;;;;;;;;;;4880064;29;20056;-72
2022/01/16 06:59:49;;;;;;;70.65;35.08;;;;;;;;;;4880655;29;20072;-73
2022/01/16 07:02:18;;;;;;;66.70;33.58;;;;;;;;;;4879814;29;20044;-72
2022/01/16 07:04:47;;;;;;;61.42;33.58;;;;;;;;;;4879703;29;20067;-71
2022/01/16 07:07:14;;;;;;;61.42;31.30;;;;;;;;;;4879165;29;20059;-71
2022/01/16 07:09:40;;;;;;;47.00;27.00;;;;;;;;;;4880312;29;20056;-73
2022/01/16 07:12:07;;;;;;;41.22;24.67;;;;;;;;;;4880093;29;20103;-72
2022/01/16 07:14:33;;;;;;;38.88;24.95;;;;;;;;;;4880247;29;20085;-73
2022/01/16 07:16:59;;;;;;;37.85;23.92;;;;;;;;;;4879082;29;20135;-73
2022/01/16 07:19:25;;;;;;;45.03;24.13;;;;;;;;;;4880388;29;20057;-72
2022/01/16 07:21:53;;;;;;;39.97;24.48;;;;;;;;;;4878576;29;20049;-73
2022/01/16 07:24:19;;;;;;;39.50;24.75;;;;;;;;;;4879441;29;20057;-72
2022/01/16 07:26:45;;;;;;;33.88;22.30;;;;;;;;;;4879727;29;20056;-73
2022/01/16 07:29:11;;;;;;;37.28;22.90;;;;;;;;;;4879370;29;20052;-72
2022/01/16 07:31:40;;;;;;;38.20;22.13;;;;;;;;;;4879031;29;20128;-73
2022/01/16 07:34:07;;;;;;;32.95;21.75;;;;;;;;;;4879386;29;20495;-74
2022/01/16 07:36:33;;;;;;;35.80;22.75;;;;;;;;;;4879384;29;20488;-73
2022/01/16 07:39:00;;;;;;;40.28;22.52;;;;;;;;;;4879805;29;20060;-73
2022/01/16 07:41:26;;;;;;;38.60;22.90;;;;;;;;;;4878894;29;20044;-72
2022/01/16 07:43:52;;;;;;;36.95;22.45;;;;;;;;;;4880294;29;20064;-73
2022/01/16 07:46:18;;;;;;;35.75;21.85;;;;;;;;;;4879092;29;20053;-72
2022/01/16 07:48:44;;;;;;;43.08;24.02;;;;;;;;;;4879586;29;20063;-73
2022/01/16 07:51:10;;;;;;;40.22;23.45;;;;;;;;;;4878203;29;20049;-72
2022/01/16 07:53:37;;;;;;;37.90;22.75;;;;;;;;;;4878859;29;20060;-72
2022/01/16 07:56:03;;;;;;;36.92;22.05;;;;;;;;;;4877835;29;20087;-74
2022/01/16 07:58:30;;;;;;;37.25;21.75;;;;;;;;;;4879174;29;20140;-77
2022/01/16 08:00:59;;;;;;;37.47;21.67;;;;;;;;;;4879070;29;20365;-76
2022/01/16 08:03:25;;;;;;;38.65;22.65;;;;;;;;;;4877896;29;20105;-76
2022/01/16 08:05:51;;;;;;;35.10;21.25;;;;;;;;;;4878176;29;20445;-75
2022/01/16 08:08:17;;;;;;;34.03;20.77;;;;;;;;;;4884057;29;20049;-73
2022/01/16 08:10:43;;;;;;;34.45;21.10;;;;;;;;;;4879041;29;20064;-76
2022/01/16 08:13:09;;;;;;;32.53;19.20;;;;;;;;;;4878395;29;20049;-73
2022/01/16 08:15:35;;;;;;;34.10;19.52;;;;;;;;;;4878823;29;20041;-76
2022/01/16 08:18:01;;;;;;;32.55;21.70;;;;;;;;;;4878070;29;20037;-75
2022/01/16 08:20:27;;;;;;;33.20;20.70;;;;;;;;;;4878363;29;20045;-75
2022/01/16 08:22:54;;;;;;;36.45;20.90;;;;;;;;;;4878291;29;20053;-75
2022/01/16 08:25:21;;;;;;;36.28;20.98;;;;;;;;;;4879504;29;20049;-74
2022/01/16 08:27:47;;;;;;;33.10;20.50;;;;;;;;;;4878801;29;20465;-73
2022/01/16 08:30:23;;;;;;;34.85;20.98;;;;;;;;;;4878430;29;20480;-73
2022/01/16 08:32:49;;;;;;;36.97;22.20;;;;;;;;;;4878274;29;20061;-76
2022/01/16 08:35:16;;;;;;;37.20;20.95;;;;;;;;;;4878749;29;20501;-78
2022/01/16 08:37:42;;;;;;;34.00;21.00;;;;;;;;;;4863230;29;20041;-78
2022/01/16 08:40:17;;;;;;;36.25;19.88;;;;;;;;;;4861631;29;20053;-78
2022/01/16 08:45:45;;;;;;;36.55;20.67;;;;;;;;;;4881464;29;20063;-77
2022/01/16 08:48:14;;;;;;;36.53;21.38;;;;;;;;;;4881278;29;20162;-78
2022/01/16 08:50:44;;;;;;;32.97;20.08;;;;;;;;;;4882727;29;20057;-78
2022/01/16 08:53:13;;;;;;;35.78;20.58;;;;;;;;;;4882050;29;20053;-78
2022/01/16 08:55:42;;;;;;;38.00;21.38;;;;;;;;;;4881825;29;20085;-83
2022/01/16 09:01:27;;;;;;;32.00;19.83;;;;;;;;;;4843724;29;20137;-81
2022/01/16 09:27:44;;;;;;;39.58;23.67;;;;;;;;;;5572100;23;20061;-80
2022/01/16 09:41:32;;;;;;;42.17;22.65;;;;;;;;;;4819018;29;20130;-80
2022/01/16 09:51:05;;;;;;;43.30;21.48;;;;;;;;;;4824507;29;20121;-79
2022/01/16 09:53:34;;;;;;;40.67;22.33;;;;;;;;;;4793136;29;20137;-79
2022/01/16 09:56:01;;;;;;;45.97;22.10;;;;;;;;;;4780401;29;20063;-78
2022/01/16 09:58:30;;;;;;;38.92;20.80;;;;;;;;;;4823217;29;20053;-76
2022/01/16 10:00:56;;;;;;;35.35;21.25;;;;;;;;;;4862494;29;20079;-77
2022/01/16 10:03:32;;;;;;;39.35;21.13;;;;;;;;;;4864269;29;20465;-77
2022/01/16 10:06:17;;;;;;;37.50;21.30;;;;;;;;;;4849057;29;20048;-80
2022/01/16 10:09:15;;;;;;;44.35;21.38;;;;;;;;;;4852026;29;20040;-77
2022/01/16 10:11:46;;;;;;;37.90;21.00;;;;;;;;;;4865471;29;20053;-78
2022/01/16 10:14:22;;;;;;;36.50;20.10;;;;;;;;;;4865522;29;20093;-77
2022/01/16 10:16:48;;;;;;;38.03;18.70;;;;;;;;;;4865191;29;20045;-76
2022/01/16 10:19:22;;;;;;;32.13;17.35;;;;;;;;;;4865357;29;20052;-78
2022/01/16 10:22:04;;;;;;;41.17;18.90;;;;;;;;;;4865504;29;20040;-77
2022/01/16 10:24:33;;;;;;;35.42;17.52;;;;;;;;;;4865193;29;20041;-77
2022/01/16 10:27:08;;;;;;;34.60;16.60;;;;;;;;;;4864715;29;20072;-77
2022/01/16 10:29:51;;;;;;;31.40;17.90;;;;;;;;;;4849361;29;20357;-78
2022/01/16 10:32:23;;;;;;;30.83;16.88;;;;;;;;;;4849494;29;20381;-77
2022/01/16 10:35:10;;;;;;;33.15;17.02;;;;;;;;;;4862751;29;20037;-78
2022/01/16 10:37:36;;;;;;;30.33;16.65;;;;;;;;;;4821493;29;20380;-77
2022/01/16 10:40:04;;;;;;;29.45;15.73;;;;;;;;;;4856443;29;20059;-78
2022/01/16 10:42:31;;;;;;;26.05;14.52;;;;;;;;;;4853798;29;20096;-77
2022/01/16 10:45:01;;;;;;;29.67;15.13;;;;;;;;;;4863405;29;20045;-77
2022/01/16 10:47:31;;;;;;;27.75;14.80;;;;;;;;;;4864126;29;20180;-78
2022/01/16 10:50:17;;;;;;;29.60;13.95;;;;;;;;;;4863935;29;20041;-77
2022/01/16 10:52:47;;;;;;;27.17;15.13;;;;;;;;;;4864623;29;20048;-77
2022/01/16 10:55:14;;;;;;;26.67;14.07;;;;;;;;;;4856338;29;20034;-77
2022/01/16 10:57:40;;;;;;;26.27;15.13;;;;;;;;;;4854115;29;20162;-77
2022/01/16 11:00:22;;;;;;;25.52;14.05;;;;;;;;;;4861466;29;20045;-78
2022/01/16 11:02:50;;;;;;;30.27;13.70;;;;;;;;;;4864766;29;20120;-78
2022/01/16 11:05:17;;;;;;;24.25;12.43;;;;;;;;;;4862502;29;20045;-78
2022/01/16 11:07:43;;;;;;;29.10;12.63;;;;;;;;;;4862116;29;20467;-77
2022/01/16 11:10:26;;;;;;;25.73;12.88;;;;;;;;;;4859242;29;20373;-77
2022/01/16 11:12:52;;;;;;;27.50;12.93;;;;;;;;;;4870314;29;20052;-77
2022/01/16 11:15:19;;;;;;;22.70;11.93;;;;;;;;;;4853355;29;20057;-78
2022/01/16 11:17:45;;;;;;;24.75;10.80;;;;;;;;;;4863268;29;20528;-78
2022/01/16 11:20:12;;;;;;;25.77;11.02;;;;;;;;;;4863451;29;20052;-78
2022/01/16 11:23:03;;;;;;;22.45;11.43;;;;;;;;;;4863717;29;20073;-77
2022/01/16 11:25:33;;;;;;;21.30;10.30;;;;;;;;;;4867710;29;20117;-77
2022/01/16 11:28:06;;;;;;;17.98;10.82;;;;;;;;;;4852878;29;20485;-78
2022/01/16 11:30:32;;;;;;;22.15;10.27;;;;;;;;;;4856797;29;20087;-77
2022/01/16 11:32:59;;;;;;;19.73;9.88;;;;;;;;;;4856527;29;20469;-77
2022/01/16 11:35:30;;;;;;;22.40;10.55;;;;;;;;;;4848066;29;20060;-77
2022/01/16 11:37:56;;;;;;;20.25;9.50;;;;;;;;;;4863867;29;20060;-78
2022/01/16 11:40:27;;;;;;;19.70;9.80;;;;;;;;;;4850782;29;20505;-77
2022/01/16 11:43:13;;;;;;;18.67;9.15;;;;;;;;;;4862620;29;20461;-77
2022/01/16 11:45:46;;;;;;;15.60;8.63;;;;;;;;;;4873700;29;20077;-76
2022/01/16 11:48:12;;;;;;;22.60;10.07;;;;;;;;;;4862504;29;20053;-76
2022/01/16 11:50:41;;;;;;;21.73;9.60;;;;;;;;;;4872810;29;20136;-76
2022/01/16 11:53:08;;;;;;;22.35;9.77;;;;;;;;;;4863348;29;20068;-77
2022/01/16 11:55:34;;;;;;;26.42;9.98;;;;;;;;;;4862204;29;20045;-75
2022/01/16 11:58:07;;;;;;;20.90;8.80;;;;;;;;;;4858290;29;20092;-77
2022/01/16 12:00:43;;;;;;;22.98;9.88;;;;;;;;;;4854442;29;20040;-77
2022/01/16 12:03:28;;;;;;;24.00;10.43;;;;;;;;;;4854302;29;20052;-77
2022/01/16 12:06:14;;;;;;;22.02;9.38;;;;;;;;;;4862624;29;20469;-78
2022/01/16 12:08:45;;;;;;;16.83;9.55;;;;;;;;;;4858472;29;20119;-74
2022/01/16 12:11:31;;;;;;;16.58;8.25;;;;;;;;;;4861900;29;20045;-75
2022/01/16 12:14:00;;;;;;;20.02;8.52;;;;;;;;;;4853303;29;20061;-75
2022/01/16 12:16:33;;;;;;;17.48;8.65;;;;;;;;;;4852013;29;20052;-75
2022/01/16 12:19:19;;;;;;;17.30;9.27;;;;;;;;;;4864667;29;20488;-76
2022/01/16 12:21:54;;;;;;;20.73;8.73;;;;;;;;;;4865768;29;20104;-76
2022/01/16 12:24:37;;;;;;;18.60;8.75;;;;;;;;;;4861081;29;20072;-76
2022/01/16 12:27:22;;;;;;;18.42;8.30;;;;;;;;;;4882789;29;20068;-76
2022/01/16 12:30:06;;;;;;;15.38;8.43;;;;;;;;;;4865322;29;20077;-75
2022/01/16 12:32:51;;;;;;;19.58;9.27;;;;;;;;;;4853846;29;20052;-78
2022/01/16 12:35:36;;;;;;;19.25;8.48;;;;;;;;;;4864466;29;20139;-75
2022/01/16 12:38:10;;;;;;;14.98;8.63;;;;;;;;;;4849955;29;20109;-76
2022/01/16 12:40:38;;;;;;;15.63;8.15;;;;;;;;;;4867826;29;20037;-76
2022/01/16 12:43:10;;;;;;;13.38;8.88;;;;;;;;;;4860557;29;20358;-76
2022/01/16 12:45:40;;;;;;;15.35;7.93;;;;;;;;;;4864958;29;20099;-76
2022/01/16 12:48:07;;;;;;;21.67;8.43;;;;;;;;;;4866503;29;20056;-76
2022/01/16 12:50:33;;;;;;;19.48;8.30;;;;;;;;;;4862083;29;20087;-77
2022/01/16 12:52:59;;;;;;;18.27;8.50;;;;;;;;;;4866616;29;20040;-76
2022/01/16 12:55:30;;;;;;;15.60;8.20;;;;;;;;;;4850786;29;20140;-77
2022/01/16 12:58:16;;;;;;;17.70;8.75;;;;;;;;;;4873589;29;20055;-76
2022/01/16 13:01:02;;;;;;;17.63;8.63;;;;;;;;;;4851540;29;20057;-77
2022/01/16 13:03:30;;;;;;;19.48;9.77;;;;;;;;;;4850410;29;20457;-76
2022/01/16 13:06:15;;;;;;;16.30;8.45;;;;;;;;;;4864182;29;20037;-79
2022/01/16 13:09:01;;;;;;;17.75;8.95;;;;;;;;;;4865478;29;20554;-76
2022/01/16 13:11:47;;;;;;;18.67;8.90;;;;;;;;;;4864730;29;20048;-77
2022/01/16 13:14:16;;;;;;;17.27;8.40;;;;;;;;;;4852864;29;20104;-77
2022/01/16 13:16:46;;;;;;;19.08;8.57;;;;;;;;;;4855259;29;20532;-76
2022/01/16 13:19:20;;;;;;;16.95;9.00;;;;;;;;;;4866838;29;20041;-76
2022/01/16 13:21:57;;;;;;;19.77;9.35;;;;;;;;;;4864881;29;20049;-76
2022/01/16 13:24:26;;;;;;;21.05;10.20;;;;;;;;;;4865090;29;20048;-76
2022/01/16 13:26:55;;;;;;;21.42;9.68;;;;;;;;;;4862977;29;20069;-76
2022/01/16 13:29:29;;;;;;;21.02;9.20;;;;;;;;;;4865278;29;20342;-77
2022/01/16 13:31:55;;;;;;;26.13;10.05;;;;;;;;;;4865382;29;20055;-76
2022/01/16 13:34:41;;;;;;;21.50;9.60;;;;;;;;;;4863311;29;20140;-76
2022/01/16 13:37:13;;;;;;;21.23;9.68;;;;;;;;;;4865130;29;20045;-80
2022/01/16 13:39:41;;;;;;;20.10;9.77;;;;;;;;;;4861708;29;20068;-76
2022/01/16 13:42:15;;;;;;;18.48;8.27;;;;;;;;;;4864493;29;20079;-76
2022/01/16 13:44:41;;;;;;;15.70;8.25;;;;;;;;;;4857751;29;20081;-76
2022/01/16 13:47:08;;;;;;;11.82;7.05;;;;;;;;;;4873663;29;20052;-76
2022/01/16 13:49:34;;;;;;;15.20;7.95;;;;;;;;;;4853141;29;20055;-76
2022/01/16 13:52:01;;;;;;;16.70;8.13;;;;;;;;;;4864570;29;20045;-75
2022/01/16 13:54:31;;;;;;;16.50;8.75;;;;;;;;;;4860053;29;20055;-76
2022/01/16 13:57:00;;;;;;;18.83;8.30;;;;;;;;;;4855661;29;20132;-76
2022/01/16 13:59:29;;;;;;;19.73;9.57;;;;;;;;;;4846996;29;20068;-75
2022/01/16 14:02:02;;;;;;;21.85;9.80;;;;;;;;;;4861899;29;20048;-77
2022/01/16 14:04:30;;;;;;;25.33;10.15;;;;;;;;;;4863103;29;20363;-76
2022/01/16 14:07:03;;;;;;;23.02;10.23;;;;;;;;;;4848859;29;20152;-76
2022/01/16 14:09:45;;;;;;;20.67;9.50;;;;;;;;;;4864086;29;20056;-76
2022/01/16 14:12:11;;;;;;;18.17;10.30;;;;;;;;;;4863810;29;20045;-75
2022/01/16 14:14:40;;;;;;;18.48;10.98;;;;;;;;;;4853713;29;20201;-76
2022/01/16 14:22:29;;;;;;;21.83;10.65;;;;;;;;;;4846455;29;20060;-76
2022/01/16 14:24:58;;;;;;;17.77;10.20;;;;;;;;;;4853825;29;20109;-76
2022/01/16 14:27:35;;;;;;;19.67;11.50;;;;;;;;;;4863550;29;20080;-76
2022/01/16 14:30:06;;;;;;;24.55;10.82;;;;;;;;;;4863728;29;20049;-75
2022/01/16 14:32:33;;;;;;;20.27;11.00;;;;;;;;;;4861658;29;20049;-76
2022/01/16 14:35:02;;;;;;;22.80;11.40;;;;;;;;;;4858614;29;20140;-76
2022/01/16 14:37:56;;;;;;;25.50;11.52;;;;;;;;;;4846136;29;20109;-76
2022/01/16 14:40:36;;;;;;;25.50;10.73;;;;;;;;;;4848848;29;20229;-76
2022/01/16 14:46:02;;;;;;;22.27;11.70;;;;;;;;;;4882367;29;20037;-76
2022/01/16 14:48:52;;;;;;;26.75;11.70;;;;;;;;;;4849879;29;20052;-76
2022/01/16 14:51:40;;;;;;;20.92;11.95;;;;;;;;;;4854610;29;20040;-76
2022/01/16 14:54:09;;;;;;;28.08;12.52;;;;;;;;;;4851921;29;20096;-76
2022/01/16 14:56:35;;;;;;;23.63;12.07;;;;;;;;;;4847584;29;20140;-76
2022/01/16 15:00:11;;;;;;;25.02;11.80;;;;;;;;;;4867062;29;20460;-76
2022/01/16 15:03:33;;;;;;;;;;;;;;;;;;;;;
2022/01/16 15:06:30;;;;;;;19.83;11.68;;;;;;;;;;4800500;29;20083;-77
2022/01/16 15:09:14;;;;;;;22.58;12.38;;;;;;;;;;4789034;29;20482;-77
2022/01/16 15:11:50;;;;;;;24.75;12.85;;;;;;;;;;4858465;29;20057;-76
2022/01/16 15:14:47;;;;;;;23.55;12.23;;;;;;;;;;4878818;29;20053;-76
2022/01/16 15:17:56;;;;;;;29.30;12.63;;;;;;;;;;4860170;29;20499;-77
2022/01/16 15:34:50;;;;;;;26.35;13.25;;;;;;;;;;4819743;29;20050;-75
2022/01/16 15:41:31;;;;;;;;;;;;;;;;;;;;;
2022/01/16 15:48:44;;;;;;;;;;;;;;;;;;;;;
2022/01/16 15:51:57;;;;;;;;;;;;;;;;;;;;;
2022/01/16 20:10:28;;;;;;;7.75;2.05;;;;;;;;;;5500669;23;20044;-76
2022/01/16 20:12:56;;;;;;;8.43;2.83;;;;;;;;;;4899558;29;20063;-80
2022/01/16 20:15:23;;;;;;;11.18;2.65;;;;;;;;;;4901512;29;20071;-78
2022/01/16 21:39:30;;;;;;;16.83;3.70;;;;;;;;;;5248982;23;20060;-78
2022/01/16 21:42:10;;;;;;;18.00;3.47;;;;;;;;;;4869998;29;20044;-76
2022/01/16 21:45:14;;;;;;;16.92;3.50;;;;;;;;;;4881001;29;20036;-78
2022/01/16 21:47:45;;;;;;;15.45;3.40;;;;;;;;;;4893511;29;20052;-78
2022/01/16 22:11:43;;;;;;;;;;;;;;;;;;;;;
2022/01/16 22:22:18;;;;;;;16.15;3.10;;;;;;;;;;4860107;29;20100;-77
2022/01/16 22:47:49;;;;;;;;;;;;;;;;;;;;;
2022/01/16 22:50:53;;;;;;;10.68;3.63;;;;;;;;;;4715936;30;20064;-77
2022/01/16 22:53:28;;;;;;;13.60;3.92;;;;;;;;;;4713891;30;20061;-77
2022/01/16 22:55:58;;;;;;;17.08;3.55;;;;;;;;;;4728808;30;20388;-77
2022/01/16 22:58:25;;;;;;;14.60;3.85;;;;;;;;;;4800180;29;20056;-76
2022/01/16 23:00:55;;;;;;;15.73;3.45;;;;;;;;;;4866783;29;20124;-76
2022/01/16 23:03:31;;;;;;;16.80;3.42;;;;;;;;;;4882761;29;20052;-77
2022/01/16 23:06:03;;;;;;;12.38;3.10;;;;;;;;;;4867174;29;20525;-78
2022/01/16 23:08:31;;;;;;;10.75;3.38;;;;;;;;;;4867408;29;20557;-77
2022/01/16 23:14:10;;;;;;;14.75;3.88;;;;;;;;;;4880720;29;20440;-77